sensor_id;sensor_type;location;lat;lon;timestamp;P1;durP1;ratioP1;P2;durP2;ratioP2
25962;SDS011;13760;52.588;13.406;2024-01-16T00:02:19;4.32;;;1.65;;
25962;SDS011;13760;52.588;13.406;2024-01-16T00:04:44;4.05;;;1.60;;
25962;SDS011;13760;52.588;13.406;2024-01-16T00:07:10;4.38;;;1.67;;
25962;SDS011;13760;52.588;13.406;2024-01-16T00:09:35;11.15;;;1.92;;
25962;SDS011;13760;52.588;13.406;2024-01-16T00:12:01;5.60;;;1.88;;
25962;SDS011;13760;52.588;13.406;2024-01-16T00:14:28;4.57;;;1.85;;
25962;SDS011;13760;52.588;13.406;2024-01-16T00:16:54;4.97;;;1.75;;
25962;SDS011;13760;52.588;13.406;2024-01-16T00:19:20;5.68;;;1.88;;
25962;SDS011;13760;52.588;13.406;2024-01-16T00:21:45;5.30;;;1.60;;
25962;SDS011;13760;52.588;13.406;2024-01-16T00:24:11;9.75;;;1.90;;
25962;SDS011;13760;52.588;13.406;2024-01-16T00:26:37;3.38;;;1.70;;
25962;SDS011;13760;52.588;13.406;2024-01-16T00:29:03;11.60;;;2.33;;
25962;SDS011;13760;52.588;13.406;2024-01-16T00:31:28;6.70;;;2.05;;
25962;SDS011;13760;52.588;13.406;2024-01-16T00:33:54;10.23;;;2.47;;
25962;SDS011;13760;52.588;13.406;2024-01-16T00:36:19;8.45;;;2.22;;
25962;SDS011;13760;52.588;13.406;2024-01-16T00:38:45;6.18;;;1.98;;
25962;SDS011;13760;52.588;13.406;2024-01-16T00:41:12;7.32;;;2.20;;
25962;SDS011;13760;52.588;13.406;2024-01-16T00:43:37;7.45;;;2.13;;
25962;SDS011;13760;52.588;13.406;2024-01-16T00:46:03;7.72;;;1.88;;
25962;SDS011;13760;52.588;13.406;2024-01-16T00:48:28;7.43;;;2.45;;
25962;SDS011;13760;52.588;13.406;2024-01-16T00:50:54;7.45;;;2.33;;
25962;SDS011;13760;52.588;13.406;2024-01-16T00:53:19;10.10;;;1.90;;
25962;SDS011;13760;52.588;13.406;2024-01-16T00:55:45;9.88;;;2.55;;
25962;SDS011;13760;52.588;13.406;2024-01-16T00:58:10;5.82;;;1.60;;
25962;SDS011;13760;52.588;13.406;2024-01-16T01:00:36;6.63;;;1.90;;
25962;SDS011;13760;52.588;13.406;2024-01-16T01:03:02;6.38;;;1.95;;
25962;SDS011;13760;52.588;13.406;2024-01-16T01:05:31;4.65;;;1.63;;
25962;SDS011;13760;52.588;13.406;2024-01-16T01:07:57;4.43;;;1.65;;
25962;SDS011;13760;52.588;13.406;2024-01-16T01:10:22;6.00;;;1.60;;
25962;SDS011;13760;52.588;13.406;2024-01-16T01:12:48;3.03;;;1.70;;
25962;SDS011;13760;52.588;13.406;2024-01-16T01:15:14;6.40;;;2.03;;
25962;SDS011;13760;52.588;13.406;2024-01-16T01:17:40;5.85;;;1.83;;
25962;SDS011;13760;52.588;13.406;2024-01-16T01:20:06;8.23;;;1.70;;
25962;SDS011;13760;52.588;13.406;2024-01-16T01:22:33;4.68;;;1.80;;
25962;SDS011;13760;52.588;13.406;2024-01-16T01:24:58;3.80;;;1.50;;
25962;SDS011;13760;52.588;13.406;2024-01-16T01:27:24;5.97;;;1.60;;
25962;SDS011;13760;52.588;13.406;2024-01-16T01:29:49;3.80;;;1.90;;
25962;SDS011;13760;52.588;13.406;2024-01-16T01:32:15;5.03;;;1.65;;
25962;SDS011;13760;52.588;13.406;2024-01-16T01:34:43;4.75;;;1.80;;
25962;SDS011;13760;52.588;13.406;2024-01-16T01:37:09;4.00;;;1.60;;
25962;SDS011;13760;52.588;13.406;2024-01-16T01:39:34;6.70;;;1.92;;
25962;SDS011;13760;52.588;13.406;2024-01-16T01:42:00;7.70;;;1.70;;
25962;SDS011;13760;52.588;13.406;2024-01-16T01:44:25;7.25;;;2.10;;
25962;SDS011;13760;52.588;13.406;2024-01-16T01:46:53;4.80;;;1.90;;
25962;SDS011;13760;52.588;13.406;2024-01-16T01:49:19;8.15;;;2.13;;
25962;SDS011;13760;52.588;13.406;2024-01-16T01:51:45;3.60;;;1.70;;
25962;SDS011;13760;52.588;13.406;2024-01-16T01:54:11;9.63;;;2.00;;
25962;SDS011;13760;52.588;13.406;2024-01-16T01:56:38;7.45;;;1.90;;
25962;SDS011;13760;52.588;13.406;2024-01-16T01:59:04;5.65;;;1.88;;
25962;SDS011;13760;52.588;13.406;2024-01-16T02:01:33;4.70;;;1.83;;
25962;SDS011;13760;52.588;13.406;2024-01-16T02:03:59;6.88;;;2.30;;
25962;SDS011;13760;52.588;13.406;2024-01-16T02:06:26;5.38;;;2.47;;
25962;SDS011;13760;52.588;13.406;2024-01-16T02:08:51;4.70;;;1.83;;
25962;SDS011;13760;52.588;13.406;2024-01-16T02:11:17;3.45;;;1.70;;
25962;SDS011;13760;52.588;13.406;2024-01-16T02:13:43;6.38;;;2.42;;
25962;SDS011;13760;52.588;13.406;2024-01-16T02:16:21;7.40;;;2.00;;
25962;SDS011;13760;52.588;13.406;2024-01-16T02:18:48;7.68;;;2.58;;
25962;SDS011;13760;52.588;13.406;2024-01-16T02:21:25;4.13;;;1.77;;
25962;SDS011;13760;52.588;13.406;2024-01-16T02:23:53;3.83;;;2.03;;
25962;SDS011;13760;52.588;13.406;2024-01-16T02:26:18;7.07;;;2.08;;
25962;SDS011;13760;52.588;13.406;2024-01-16T02:28:44;5.95;;;2.40;;
25962;SDS011;13760;52.588;13.406;2024-01-16T02:31:10;4.43;;;2.08;;
25962;SDS011;13760;52.588;13.406;2024-01-16T02:33:36;5.78;;;2.28;;
25962;SDS011;13760;52.588;13.406;2024-01-16T02:36:01;7.95;;;2.28;;
25962;SDS011;13760;52.588;13.406;2024-01-16T02:38:27;5.72;;;1.85;;
25962;SDS011;13760;52.588;13.406;2024-01-16T02:40:52;6.93;;;2.28;;
25962;SDS011;13760;52.588;13.406;2024-01-16T02:43:18;2.75;;;2.00;;
25962;SDS011;13760;52.588;13.406;2024-01-16T02:45:43;7.38;;;2.72;;
25962;SDS011;13760;52.588;13.406;2024-01-16T02:48:09;8.02;;;2.63;;
25962;SDS011;13760;52.588;13.406;2024-01-16T02:50:34;4.60;;;1.95;;
25962;SDS011;13760;52.588;13.406;2024-01-16T02:53:00;6.70;;;2.15;;
25962;SDS011;13760;52.588;13.406;2024-01-16T02:55:25;7.10;;;2.28;;
25962;SDS011;13760;52.588;13.406;2024-01-16T02:57:51;6.80;;;2.47;;
25962;SDS011;13760;52.588;13.406;2024-01-16T03:00:16;4.13;;;2.05;;
25962;SDS011;13760;52.588;13.406;2024-01-16T03:02:42;5.65;;;2.50;;
25962;SDS011;13760;52.588;13.406;2024-01-16T03:05:09;6.05;;;2.13;;
25962;SDS011;13760;52.588;13.406;2024-01-16T03:07:35;7.63;;;2.65;;
25962;SDS011;13760;52.588;13.406;2024-01-16T03:10:01;9.90;;;2.60;;
25962;SDS011;13760;52.588;13.406;2024-01-16T03:12:26;6.25;;;2.08;;
25962;SDS011;13760;52.588;13.406;2024-01-16T03:14:52;4.38;;;2.28;;
25962;SDS011;13760;52.588;13.406;2024-01-16T03:17:18;4.20;;;1.88;;
25962;SDS011;13760;52.588;13.406;2024-01-16T03:19:47;4.30;;;2.05;;
25962;SDS011;13760;52.588;13.406;2024-01-16T03:22:12;4.20;;;2.17;;
25962;SDS011;13760;52.588;13.406;2024-01-16T03:24:38;6.03;;;2.17;;
25962;SDS011;13760;52.588;13.406;2024-01-16T03:27:03;8.27;;;2.42;;
25962;SDS011;13760;52.588;13.406;2024-01-16T03:29:29;8.10;;;2.60;;
25962;SDS011;13760;52.588;13.406;2024-01-16T03:31:55;7.28;;;2.53;;
25962;SDS011;13760;52.588;13.406;2024-01-16T03:34:20;8.00;;;2.42;;
25962;SDS011;13760;52.588;13.406;2024-01-16T03:36:46;5.57;;;2.53;;
25962;SDS011;13760;52.588;13.406;2024-01-16T03:39:12;11.00;;;2.42;;
25962;SDS011;13760;52.588;13.406;2024-01-16T03:41:37;9.95;;;2.55;;
25962;SDS011;13760;52.588;13.406;2024-01-16T03:44:03;7.18;;;2.85;;
25962;SDS011;13760;52.588;13.406;2024-01-16T03:46:29;6.93;;;2.63;;
25962;SDS011;13760;52.588;13.406;2024-01-16T03:48:54;6.82;;;2.58;;
25962;SDS011;13760;52.588;13.406;2024-01-16T03:51:20;10.45;;;3.05;;
25962;SDS011;13760;52.588;13.406;2024-01-16T03:53:45;9.40;;;3.25;;
25962;SDS011;13760;52.588;13.406;2024-01-16T03:56:11;9.00;;;3.30;;
25962;SDS011;13760;52.588;13.406;2024-01-16T03:58:37;9.07;;;3.17;;
25962;SDS011;13760;52.588;13.406;2024-01-16T04:01:04;6.03;;;2.88;;
25962;SDS011;13760;52.588;13.406;2024-01-16T04:03:30;7.63;;;3.10;;
25962;SDS011;13760;52.588;13.406;2024-01-16T04:05:55;10.73;;;3.30;;
25962;SDS011;13760;52.588;13.406;2024-01-16T04:08:21;10.27;;;3.22;;
25962;SDS011;13760;52.588;13.406;2024-01-16T04:10:46;6.47;;;3.00;;
25962;SDS011;13760;52.588;13.406;2024-01-16T04:13:12;6.75;;;3.22;;
25962;SDS011;13760;52.588;13.406;2024-01-16T04:15:38;9.05;;;3.28;;
25962;SDS011;13760;52.588;13.406;2024-01-16T04:18:04;8.77;;;3.70;;
25962;SDS011;13760;52.588;13.406;2024-01-16T04:20:30;8.48;;;3.45;;
25962;SDS011;13760;52.588;13.406;2024-01-16T04:22:56;6.53;;;3.35;;
25962;SDS011;13760;52.588;13.406;2024-01-16T04:25:22;8.77;;;4.10;;
25962;SDS011;13760;52.588;13.406;2024-01-16T04:27:48;14.80;;;3.45;;
25962;SDS011;13760;52.588;13.406;2024-01-16T04:30:13;9.40;;;3.78;;
25962;SDS011;13760;52.588;13.406;2024-01-16T04:32:39;10.95;;;4.20;;
25962;SDS011;13760;52.588;13.406;2024-01-16T04:35:04;8.32;;;3.15;;
25962;SDS011;13760;52.588;13.406;2024-01-16T04:37:30;9.90;;;3.33;;
25962;SDS011;13760;52.588;13.406;2024-01-16T04:39:55;6.55;;;2.70;;
25962;SDS011;13760;52.588;13.406;2024-01-16T04:42:22;5.78;;;2.70;;
25962;SDS011;13760;52.588;13.406;2024-01-16T04:44:48;5.25;;;3.03;;
25962;SDS011;13760;52.588;13.406;2024-01-16T04:47:14;6.57;;;2.90;;
25962;SDS011;13760;52.588;13.406;2024-01-16T04:49:41;8.60;;;2.88;;
25962;SDS011;13760;52.588;13.406;2024-01-16T04:52:07;9.10;;;3.13;;
25962;SDS011;13760;52.588;13.406;2024-01-16T04:54:32;8.70;;;3.40;;
25962;SDS011;13760;52.588;13.406;2024-01-16T04:56:58;6.35;;;3.08;;
25962;SDS011;13760;52.588;13.406;2024-01-16T04:59:23;6.22;;;3.10;;
25962;SDS011;13760;52.588;13.406;2024-01-16T05:01:49;7.40;;;3.40;;
25962;SDS011;13760;52.588;13.406;2024-01-16T05:04:15;6.07;;;3.20;;
25962;SDS011;13760;52.588;13.406;2024-01-16T05:06:40;7.85;;;3.28;;
25962;SDS011;13760;52.588;13.406;2024-01-16T05:09:06;6.85;;;3.42;;
25962;SDS011;13760;52.588;13.406;2024-01-16T05:11:31;6.28;;;3.63;;
25962;SDS011;13760;52.588;13.406;2024-01-16T05:13:57;6.60;;;3.83;;
25962;SDS011;13760;52.588;13.406;2024-01-16T05:16:24;8.05;;;3.78;;
25962;SDS011;13760;52.588;13.406;2024-01-16T05:18:49;7.05;;;3.88;;
25962;SDS011;13760;52.588;13.406;2024-01-16T05:21:15;9.27;;;3.95;;
25962;SDS011;13760;52.588;13.406;2024-01-16T05:23:40;5.97;;;3.60;;
25962;SDS011;13760;52.588;13.406;2024-01-16T05:26:06;10.35;;;3.85;;
25962;SDS011;13760;52.588;13.406;2024-01-16T05:28:32;13.70;;;4.45;;
25962;SDS011;13760;52.588;13.406;2024-01-16T05:30:57;9.48;;;4.20;;
25962;SDS011;13760;52.588;13.406;2024-01-16T05:33:22;8.90;;;4.22;;
25962;SDS011;13760;52.588;13.406;2024-01-16T05:35:48;8.07;;;3.97;;
25962;SDS011;13760;52.588;13.406;2024-01-16T05:38:13;9.32;;;4.20;;
25962;SDS011;13760;52.588;13.406;2024-01-16T05:40:39;11.50;;;4.13;;
25962;SDS011;13760;52.588;13.406;2024-01-16T05:43:05;9.40;;;4.13;;
25962;SDS011;13760;52.588;13.406;2024-01-16T05:45:30;8.88;;;4.00;;
25962;SDS011;13760;52.588;13.406;2024-01-16T05:47:56;9.70;;;4.35;;
25962;SDS011;13760;52.588;13.406;2024-01-16T05:50:21;8.18;;;3.85;;
25962;SDS011;13760;52.588;13.406;2024-01-16T05:52:47;11.32;;;4.40;;
25962;SDS011;13760;52.588;13.406;2024-01-16T05:55:12;13.45;;;3.88;;
25962;SDS011;13760;52.588;13.406;2024-01-16T05:57:38;7.88;;;3.95;;
25962;SDS011;13760;52.588;13.406;2024-01-16T06:00:04;12.43;;;4.03;;
25962;SDS011;13760;52.588;13.406;2024-01-16T06:02:30;10.90;;;4.25;;
25962;SDS011;13760;52.588;13.406;2024-01-16T06:04:56;9.23;;;4.95;;
25962;SDS011;13760;52.588;13.406;2024-01-16T06:07:21;9.75;;;4.30;;
25962;SDS011;13760;52.588;13.406;2024-01-16T06:09:47;9.00;;;4.70;;
25962;SDS011;13760;52.588;13.406;2024-01-16T06:12:12;7.68;;;4.50;;
25962;SDS011;13760;52.588;13.406;2024-01-16T06:14:38;10.88;;;5.35;;
25962;SDS011;13760;52.588;13.406;2024-01-16T06:17:04;8.15;;;4.38;;
25962;SDS011;13760;52.588;13.406;2024-01-16T06:19:31;9.02;;;5.20;;
25962;SDS011;13760;52.588;13.406;2024-01-16T06:21:58;12.80;;;4.88;;
25962;SDS011;13760;52.588;13.406;2024-01-16T06:24:23;14.65;;;5.13;;
25962;SDS011;13760;52.588;13.406;2024-01-16T06:26:49;12.93;;;5.25;;
25962;SDS011;13760;52.588;13.406;2024-01-16T06:29:15;12.80;;;5.28;;
25962;SDS011;13760;52.588;13.406;2024-01-16T06:31:40;12.88;;;5.50;;
25962;SDS011;13760;52.588;13.406;2024-01-16T06:34:06;13.73;;;5.70;;
25962;SDS011;13760;52.588;13.406;2024-01-16T06:36:31;12.15;;;5.90;;
25962;SDS011;13760;52.588;13.406;2024-01-16T06:38:57;14.55;;;6.90;;
25962;SDS011;13760;52.588;13.406;2024-01-16T06:41:23;13.60;;;6.18;;
25962;SDS011;13760;52.588;13.406;2024-01-16T06:43:48;14.52;;;6.25;;
25962;SDS011;13760;52.588;13.406;2024-01-16T06:46:14;12.38;;;6.40;;
25962;SDS011;13760;52.588;13.406;2024-01-16T06:48:39;16.63;;;5.85;;
25962;SDS011;13760;52.588;13.406;2024-01-16T06:51:05;14.80;;;6.60;;
25962;SDS011;13760;52.588;13.406;2024-01-16T06:53:30;14.38;;;6.10;;
25962;SDS011;13760;52.588;13.406;2024-01-16T06:55:56;16.60;;;6.65;;
25962;SDS011;13760;52.588;13.406;2024-01-16T06:58:21;15.45;;;7.15;;
25962;SDS011;13760;52.588;13.406;2024-01-16T07:00:47;14.10;;;6.93;;
25962;SDS011;13760;52.588;13.406;2024-01-16T07:03:13;10.55;;;6.35;;
25962;SDS011;13760;52.588;13.406;2024-01-16T07:05:38;13.52;;;6.05;;
25962;SDS011;13760;52.588;13.406;2024-01-16T07:08:05;11.73;;;5.95;;
25962;SDS011;13760;52.588;13.406;2024-01-16T07:10:31;12.23;;;6.35;;
25962;SDS011;13760;52.588;13.406;2024-01-16T07:12:57;16.13;;;5.93;;
25962;SDS011;13760;52.588;13.406;2024-01-16T07:15:22;16.27;;;6.88;;
25962;SDS011;13760;52.588;13.406;2024-01-16T07:17:48;12.80;;;5.45;;
25962;SDS011;13760;52.588;13.406;2024-01-16T07:20:13;18.95;;;6.20;;
25962;SDS011;13760;52.588;13.406;2024-01-16T07:22:39;15.57;;;5.95;;
25962;SDS011;13760;52.588;13.406;2024-01-16T07:25:05;14.52;;;6.15;;
25962;SDS011;13760;52.588;13.406;2024-01-16T07:27:32;13.80;;;6.05;;
25962;SDS011;13760;52.588;13.406;2024-01-16T07:29:57;12.38;;;5.20;;
25962;SDS011;13760;52.588;13.406;2024-01-16T07:32:23;14.90;;;5.80;;
25962;SDS011;13760;52.588;13.406;2024-01-16T07:34:48;17.20;;;6.15;;
25962;SDS011;13760;52.588;13.406;2024-01-16T07:37:15;12.73;;;5.80;;
25962;SDS011;13760;52.588;13.406;2024-01-16T07:39:40;10.43;;;5.50;;
25962;SDS011;13760;52.588;13.406;2024-01-16T07:42:06;17.30;;;6.32;;
25962;SDS011;13760;52.588;13.406;2024-01-16T07:44:33;17.95;;;6.18;;
25962;SDS011;13760;52.588;13.406;2024-01-16T07:46:58;13.90;;;5.93;;
25962;SDS011;13760;52.588;13.406;2024-01-16T07:49:24;12.35;;;6.38;;
25962;SDS011;13760;52.588;13.406;2024-01-16T07:51:49;12.02;;;6.03;;
25962;SDS011;13760;52.588;13.406;2024-01-16T07:54:15;12.25;;;5.68;;
25962;SDS011;13760;52.588;13.406;2024-01-16T07:56:40;16.48;;;6.20;;
25962;SDS011;13760;52.588;13.406;2024-01-16T07:59:06;12.48;;;5.75;;
25962;SDS011;13760;52.588;13.406;2024-01-16T08:01:33;15.80;;;5.95;;
25962;SDS011;13760;52.588;13.406;2024-01-16T08:03:59;16.38;;;6.45;;
25962;SDS011;13760;52.588;13.406;2024-01-16T08:06:24;13.75;;;6.75;;
25962;SDS011;13760;52.588;13.406;2024-01-16T08:08:52;15.13;;;6.70;;
25962;SDS011;13760;52.588;13.406;2024-01-16T08:11:18;15.23;;;6.45;;
25962;SDS011;13760;52.588;13.406;2024-01-16T08:13:43;12.82;;;5.90;;
25962;SDS011;13760;52.588;13.406;2024-01-16T08:16:09;14.48;;;6.10;;
25962;SDS011;13760;52.588;13.406;2024-01-16T08:18:35;15.93;;;6.10;;
25962;SDS011;13760;52.588;13.406;2024-01-16T08:21:01;11.98;;;4.90;;
25962;SDS011;13760;52.588;13.406;2024-01-16T08:23:26;10.27;;;5.15;;
25962;SDS011;13760;52.588;13.406;2024-01-16T08:25:52;12.05;;;6.03;;
25962;SDS011;13760;52.588;13.406;2024-01-16T08:28:18;10.68;;;5.82;;
25962;SDS011;13760;52.588;13.406;2024-01-16T08:30:44;11.07;;;6.03;;
25962;SDS011;13760;52.588;13.406;2024-01-16T08:33:09;12.70;;;5.60;;
25962;SDS011;13760;52.588;13.406;2024-01-16T08:35:36;13.52;;;6.53;;
25962;SDS011;13760;52.588;13.406;2024-01-16T08:38:02;13.98;;;6.43;;
25962;SDS011;13760;52.588;13.406;2024-01-16T08:40:28;10.88;;;5.90;;
25962;SDS011;13760;52.588;13.406;2024-01-16T08:42:56;13.07;;;6.40;;
25962;SDS011;13760;52.588;13.406;2024-01-16T08:45:22;12.02;;;6.40;;
25962;SDS011;13760;52.588;13.406;2024-01-16T08:47:48;15.75;;;6.38;;
25962;SDS011;13760;52.588;13.406;2024-01-16T08:50:17;13.38;;;6.13;;
25962;SDS011;13760;52.588;13.406;2024-01-16T08:52:42;13.60;;;6.80;;
25962;SDS011;13760;52.588;13.406;2024-01-16T08:55:08;13.38;;;6.07;;
25962;SDS011;13760;52.588;13.406;2024-01-16T08:57:34;12.98;;;6.43;;
25962;SDS011;13760;52.588;13.406;2024-01-16T09:00:02;11.63;;;5.80;;
25962;SDS011;13760;52.588;13.406;2024-01-16T09:02:32;15.15;;;7.15;;
25962;SDS011;13760;52.588;13.406;2024-01-16T09:04:57;16.42;;;6.80;;
25962;SDS011;13760;52.588;13.406;2024-01-16T09:07:23;11.50;;;6.45;;
25962;SDS011;13760;52.588;13.406;2024-01-16T09:09:49;13.65;;;6.75;;
25962;SDS011;13760;52.588;13.406;2024-01-16T09:12:15;18.55;;;7.47;;
25962;SDS011;13760;52.588;13.406;2024-01-16T09:14:41;14.40;;;7.22;;
25962;SDS011;13760;52.588;13.406;2024-01-16T09:17:06;19.17;;;7.88;;
25962;SDS011;13760;52.588;13.406;2024-01-16T09:19:32;14.80;;;7.63;;
25962;SDS011;13760;52.588;13.406;2024-01-16T09:21:57;12.77;;;7.22;;
25962;SDS011;13760;52.588;13.406;2024-01-16T09:24:23;17.33;;;8.23;;
25962;SDS011;13760;52.588;13.406;2024-01-16T09:26:48;13.95;;;7.28;;
25962;SDS011;13760;52.588;13.406;2024-01-16T09:29:14;14.57;;;7.68;;
25962;SDS011;13760;52.588;13.406;2024-01-16T09:31:40;16.20;;;7.55;;
25962;SDS011;13760;52.588;13.406;2024-01-16T09:34:09;14.38;;;8.05;;
25962;SDS011;13760;52.588;13.406;2024-01-16T09:36:40;19.15;;;9.13;;
25962;SDS011;13760;52.588;13.406;2024-01-16T09:39:11;18.20;;;9.73;;
25962;SDS011;13760;52.588;13.406;2024-01-16T09:41:38;17.00;;;8.95;;
25962;SDS011;13760;52.588;13.406;2024-01-16T09:44:04;20.13;;;9.25;;
25962;SDS011;13760;52.588;13.406;2024-01-16T09:46:31;18.05;;;8.35;;
25962;SDS011;13760;52.588;13.406;2024-01-16T09:49:00;18.38;;;8.52;;
25962;SDS011;13760;52.588;13.406;2024-01-16T09:51:27;18.95;;;9.80;;
25962;SDS011;13760;52.588;13.406;2024-01-16T09:53:53;16.83;;;9.07;;
25962;SDS011;13760;52.588;13.406;2024-01-16T09:56:21;17.88;;;9.52;;
25962;SDS011;13760;52.588;13.406;2024-01-16T09:58:49;13.70;;;8.10;;
25962;SDS011;13760;52.588;13.406;2024-01-16T10:01:19;18.00;;;9.68;;
25962;SDS011;13760;52.588;13.406;2024-01-16T10:03:46;22.45;;;9.85;;
25962;SDS011;13760;52.588;13.406;2024-01-16T10:06:12;16.83;;;8.60;;
25962;SDS011;13760;52.588;13.406;2024-01-16T10:08:40;19.23;;;9.50;;
25962;SDS011;13760;52.588;13.406;2024-01-16T10:11:09;19.15;;;8.55;;
25962;SDS011;13760;52.588;13.406;2024-01-16T10:13:34;14.65;;;8.02;;
25962;SDS011;13760;52.588;13.406;2024-01-16T10:16:01;21.42;;;8.98;;
25962;SDS011;13760;52.588;13.406;2024-01-16T10:18:28;17.80;;;8.40;;
25962;SDS011;13760;52.588;13.406;2024-01-16T10:20:58;14.07;;;7.63;;
25962;SDS011;13760;52.588;13.406;2024-01-16T10:23:31;12.90;;;7.30;;
25962;SDS011;13760;52.588;13.406;2024-01-16T10:26:07;17.10;;;8.43;;
25962;SDS011;13760;52.588;13.406;2024-01-16T10:28:35;12.88;;;7.70;;
25962;SDS011;13760;52.588;13.406;2024-01-16T10:31:02;13.23;;;6.47;;
25962;SDS011;13760;52.588;13.406;2024-01-16T10:33:31;17.25;;;6.88;;
25962;SDS011;13760;52.588;13.406;2024-01-16T10:36:17;12.80;;;6.70;;
25962;SDS011;13760;52.588;13.406;2024-01-16T10:38:45;16.42;;;6.20;;
25962;SDS011;13760;52.588;13.406;2024-01-16T10:41:15;11.93;;;6.20;;
25962;SDS011;13760;52.588;13.406;2024-01-16T10:43:42;11.20;;;6.05;;
25962;SDS011;13760;52.588;13.406;2024-01-16T10:46:15;11.15;;;5.68;;
25962;SDS011;13760;52.588;13.406;2024-01-16T10:48:42;10.45;;;5.97;;
25962;SDS011;13760;52.588;13.406;2024-01-16T10:51:15;10.32;;;6.00;;
25962;SDS011;13760;52.588;13.406;2024-01-16T10:53:44;12.20;;;5.82;;
25962;SDS011;13760;52.588;13.406;2024-01-16T10:58:38;11.13;;;5.25;;
25962;SDS011;13760;52.588;13.406;2024-01-16T11:01:14;7.63;;;4.90;;
25962;SDS011;13760;52.588;13.406;2024-01-16T11:03:48;10.32;;;5.38;;
25962;SDS011;13760;52.588;13.406;2024-01-16T11:06:15;10.98;;;5.70;;
25962;SDS011;13760;52.588;13.406;2024-01-16T11:08:42;11.07;;;5.07;;
25962;SDS011;13760;52.588;13.406;2024-01-16T11:11:10;7.20;;;4.32;;
25962;SDS011;13760;52.588;13.406;2024-01-16T11:13:38;10.00;;;5.40;;
25962;SDS011;13760;52.588;13.406;2024-01-16T11:16:05;10.75;;;5.10;;
25962;SDS011;13760;52.588;13.406;2024-01-16T11:18:32;9.65;;;4.80;;
25962;SDS011;13760;52.588;13.406;2024-01-16T11:20:59;11.77;;;5.15;;
25962;SDS011;13760;52.588;13.406;2024-01-16T11:23:26;11.68;;;5.05;;
25962;SDS011;13760;52.588;13.406;2024-01-16T11:25:52;10.85;;;4.80;;
25962;SDS011;13760;52.588;13.406;2024-01-16T11:28:17;9.57;;;5.07;;
25962;SDS011;13760;52.588;13.406;2024-01-16T11:30:44;14.75;;;4.93;;
25962;SDS011;13760;52.588;13.406;2024-01-16T11:35:57;9.95;;;4.38;;
25962;SDS011;13760;52.588;13.406;2024-01-16T11:38:24;13.15;;;4.50;;
25962;SDS011;13760;52.588;13.406;2024-01-16T11:40:52;14.10;;;4.78;;
25962;SDS011;13760;52.588;13.406;2024-01-16T11:46:01;14.38;;;4.38;;
25962;SDS011;13760;52.588;13.406;2024-01-16T11:48:32;14.27;;;4.45;;
25962;SDS011;13760;52.588;13.406;2024-01-16T11:50:58;12.50;;;4.35;;
25962;SDS011;13760;52.588;13.406;2024-01-16T11:58:48;10.55;;;4.15;;
25962;SDS011;13760;52.588;13.406;2024-01-16T12:01:15;17.75;;;5.72;;
25962;SDS011;13760;52.588;13.406;2024-01-16T12:03:44;13.05;;;3.70;;
25962;SDS011;13760;52.588;13.406;2024-01-16T12:06:10;13.82;;;5.68;;
25962;SDS011;13760;52.588;13.406;2024-01-16T12:08:36;16.00;;;5.30;;
25962;SDS011;13760;52.588;13.406;2024-01-16T12:11:02;20.27;;;6.28;;
25962;SDS011;13760;52.588;13.406;2024-01-16T12:13:27;23.60;;;7.22;;
25962;SDS011;13760;52.588;13.406;2024-01-16T12:16:02;18.83;;;7.22;;
25962;SDS011;13760;52.588;13.406;2024-01-16T12:18:29;18.10;;;7.00;;
25962;SDS011;13760;52.588;13.406;2024-01-16T12:20:55;18.05;;;7.40;;
25962;SDS011;13760;52.588;13.406;2024-01-16T12:23:20;19.40;;;7.68;;
25962;SDS011;13760;52.588;13.406;2024-01-16T12:25:51;23.73;;;7.88;;
25962;SDS011;13760;52.588;13.406;2024-01-16T12:28:20;18.40;;;7.85;;
25962;SDS011;13760;52.588;13.406;2024-01-16T12:30:50;21.98;;;8.07;;
25962;SDS011;13760;52.588;13.406;2024-01-16T12:33:21;24.55;;;8.95;;
25962;SDS011;13760;52.588;13.406;2024-01-16T12:35:47;17.38;;;8.60;;
25962;SDS011;13760;52.588;13.406;2024-01-16T12:38:14;20.17;;;8.30;;
25962;SDS011;13760;52.588;13.406;2024-01-16T12:40:45;15.55;;;7.30;;
25962;SDS011;13760;52.588;13.406;2024-01-16T12:43:18;18.55;;;8.30;;
25962;SDS011;13760;52.588;13.406;2024-01-16T12:45:44;15.60;;;7.63;;
25962;SDS011;13760;52.588;13.406;2024-01-16T12:48:10;25.17;;;8.82;;
25962;SDS011;13760;52.588;13.406;2024-01-16T12:50:36;20.45;;;7.43;;
25962;SDS011;13760;52.588;13.406;2024-01-16T12:53:02;17.23;;;7.40;;
25962;SDS011;13760;52.588;13.406;2024-01-16T12:55:33;19.15;;;7.70;;
25962;SDS011;13760;52.588;13.406;2024-01-16T12:58:13;18.52;;;7.63;;
25962;SDS011;13760;52.588;13.406;2024-01-16T13:00:46;17.08;;;6.38;;
25962;SDS011;13760;52.588;13.406;2024-01-16T13:05:42;18.40;;;6.90;;
25962;SDS011;13760;52.588;13.406;2024-01-16T13:08:08;18.88;;;6.22;;
25962;SDS011;13760;52.588;13.406;2024-01-16T13:10:34;18.77;;;6.57;;
25962;SDS011;13760;52.588;13.406;2024-01-16T13:13:16;16.77;;;5.93;;
25962;SDS011;13760;52.588;13.406;2024-01-16T13:15:46;17.75;;;5.47;;
25962;SDS011;13760;52.588;13.406;2024-01-16T13:18:21;17.30;;;6.20;;
25962;SDS011;13760;52.588;13.406;2024-01-16T13:20:51;18.98;;;5.75;;
25962;SDS011;13760;52.588;13.406;2024-01-16T13:23:17;12.52;;;5.72;;
25962;SDS011;13760;52.588;13.406;2024-01-16T13:25:43;21.75;;;5.95;;
25962;SDS011;13760;52.588;13.406;2024-01-16T13:28:13;18.20;;;6.03;;
25962;SDS011;13760;52.588;13.406;2024-01-16T13:30:40;20.60;;;6.82;;
25962;SDS011;13760;52.588;13.406;2024-01-16T13:33:06;13.35;;;6.22;;
25962;SDS011;13760;52.588;13.406;2024-01-16T13:35:37;13.27;;;5.35;;
25962;SDS011;13760;52.588;13.406;2024-01-16T13:38:07;19.80;;;6.50;;
25962;SDS011;13760;52.588;13.406;2024-01-16T13:40:33;18.65;;;6.13;;
25962;SDS011;13760;52.588;13.406;2024-01-16T13:43:00;22.80;;;5.93;;
25962;SDS011;13760;52.588;13.406;2024-01-16T13:45:27;18.55;;;5.93;;
25962;SDS011;13760;52.588;13.406;2024-01-16T13:47:56;15.68;;;5.93;;
25962;SDS011;13760;52.588;13.406;2024-01-16T13:50:22;15.43;;;5.20;;
25962;SDS011;13760;52.588;13.406;2024-01-16T13:52:48;15.55;;;6.15;;
25962;SDS011;13760;52.588;13.406;2024-01-16T13:55:14;14.13;;;5.18;;
25962;SDS011;13760;52.588;13.406;2024-01-16T13:57:43;15.70;;;6.00;;
25962;SDS011;13760;52.588;13.406;2024-01-16T14:00:10;15.30;;;5.80;;
25962;SDS011;13760;52.588;13.406;2024-01-16T14:02:41;13.88;;;4.97;;
25962;SDS011;13760;52.588;13.406;2024-01-16T14:05:08;13.63;;;5.50;;
25962;SDS011;13760;52.588;13.406;2024-01-16T14:07:40;12.07;;;4.50;;
25962;SDS011;13760;52.588;13.406;2024-01-16T14:10:09;16.38;;;6.07;;
25962;SDS011;13760;52.588;13.406;2024-01-16T14:12:37;14.43;;;5.28;;
25962;SDS011;13760;52.588;13.406;2024-01-16T14:15:03;16.23;;;5.55;;
25962;SDS011;13760;52.588;13.406;2024-01-16T14:17:32;14.77;;;5.57;;
25962;SDS011;13760;52.588;13.406;2024-01-16T14:19:59;12.30;;;5.10;;
25962;SDS011;13760;52.588;13.406;2024-01-16T14:22:24;22.77;;;5.55;;
25962;SDS011;13760;52.588;13.406;2024-01-16T14:24:51;12.52;;;5.47;;
25962;SDS011;13760;52.588;13.406;2024-01-16T14:27:17;17.63;;;5.70;;
25962;SDS011;13760;52.588;13.406;2024-01-16T14:29:43;15.10;;;5.18;;
25962;SDS011;13760;52.588;13.406;2024-01-16T14:32:08;15.85;;;5.70;;
25962;SDS011;13760;52.588;13.406;2024-01-16T14:34:35;16.00;;;5.32;;
25962;SDS011;13760;52.588;13.406;2024-01-16T14:37:00;12.75;;;5.15;;
25962;SDS011;13760;52.588;13.406;2024-01-16T14:39:26;15.48;;;5.22;;